createdAt,value
2018-06-30T00:00:51.715Z,98.50
2018-06-30T00:03:20.637Z,98.80
2018-06-30T00:05:49.722Z,99.10
2018-06-30T00:08:18.825Z,99.00
2018-06-30T00:10:48.053Z,99.40
2018-06-30T00:13:17.123Z,99.70
2018-06-30T00:15:46.159Z,99.70
2018-06-30T00:18:15.151Z,99.90
2018-06-30T00:20:44.177Z,99.90
2018-06-30T00:23:13.142Z,99.90
2018-06-30T00:25:42.146Z,99.90
2018-06-30T00:28:11.146Z,99.90
2018-06-30T00:30:40.166Z,99.90
2018-06-30T00:33:09.124Z,99.90
2018-06-30T00:35:38.189Z,99.90
2018-06-30T00:38:07.176Z,99.90
2018-06-30T00:40:36.143Z,99.90
2018-06-30T00:43:05.372Z,99.90
2018-06-30T00:45:34.386Z,99.90
2018-06-30T00:48:03.327Z,99.90
2018-06-30T00:53:01.387Z,99.90
2018-06-30T00:55:30.813Z,99.90
2018-06-30T00:57:59.854Z,99.90
2018-06-30T01:00:28.829Z,99.90
2018-06-30T01:02:57.799Z,99.90
2018-06-30T01:07:55.654Z,99.90
2018-06-30T01:10:24.627Z,99.90
2018-06-30T01:12:53.617Z,99.90
2018-06-30T01:15:22.715Z,99.90
2018-06-30T01:17:51.752Z,99.90
2018-06-30T01:20:20.785Z,99.90
2018-06-30T01:22:49.832Z,99.90
2018-06-30T01:25:18.932Z,99.90
2018-06-30T01:27:47.899Z,99.90
2018-06-30T01:30:16.866Z,99.90
2018-06-30T01:32:45.870Z,99.90
2018-06-30T01:35:14.883Z,99.90
2018-06-30T01:37:43.876Z,99.90
2018-06-30T01:40:12.898Z,99.90
2018-06-30T01:45:10.551Z,99.90
2018-06-30T01:47:39.534Z,99.90
2018-06-30T01:50:08.634Z,99.90
2018-06-30T01:52:37.786Z,99.90
2018-06-30T01:55:06.769Z,99.90
2018-06-30T01:57:35.741Z,99.90
2018-06-30T02:00:05.349Z,99.90
2018-06-30T02:02:34.305Z,99.90
2018-06-30T02:05:03.310Z,99.90
2018-06-30T02:07:32.290Z,99.90
2018-06-30T02:10:01.263Z,99.90
2018-06-30T02:12:30.263Z,99.90
2018-06-30T02:14:59.229Z,99.90
2018-06-30T02:17:28.230Z,99.90
2018-06-30T02:19:57.194Z,99.90
2018-06-30T02:22:26.244Z,99.90
2018-06-30T02:24:55.239Z,99.90
2018-06-30T02:27:24.223Z,99.90
2018-06-30T02:32:21.918Z,99.90
2018-06-30T02:34:50.876Z,99.90
2018-06-30T02:37:19.833Z,99.90
2018-06-30T02:39:48.827Z,99.90
2018-06-30T02:42:17.841Z,99.90
2018-06-30T02:44:46.857Z,99.90
2018-06-30T02:47:15.773Z,99.90
2018-06-30T02:49:45.478Z,99.90
2018-06-30T02:52:14.465Z,99.90
2018-06-30T02:54:43.665Z,99.90
2018-06-30T02:57:12.594Z,99.90
2018-06-30T02:59:41.570Z,99.90
2018-06-30T03:02:10.567Z,99.90
2018-06-30T03:04:39.543Z,99.90
2018-06-30T03:07:08.523Z,99.90
2018-06-30T03:09:37.518Z,99.90
2018-06-30T03:12:06.509Z,99.90
2018-06-30T03:14:35.635Z,99.90
2018-06-30T03:17:04.634Z,99.90
2018-06-30T03:19:33.595Z,99.90
2018-06-30T03:22:02.598Z,99.90
2018-06-30T03:24:31.542Z,99.90
2018-06-30T03:27:00.520Z,99.90
2018-06-30T03:31:58.159Z,99.90
2018-06-30T03:34:27.152Z,99.90
2018-06-30T03:36:56.113Z,99.90
2018-06-30T03:39:25.090Z,99.90
2018-06-30T03:41:54.138Z,99.90
2018-06-30T03:44:23.094Z,99.90
2018-06-30T03:46:52.143Z,99.90
2018-06-30T03:49:21.254Z,99.90
2018-06-30T03:54:19.097Z,99.90
2018-06-30T03:56:48.062Z,99.90
2018-06-30T03:59:17.465Z,99.90
2018-06-30T04:01:46.727Z,99.90
2018-06-30T04:04:16.358Z,99.90
2018-06-30T04:06:45.324Z,99.90
2018-06-30T04:09:14.333Z,99.90
2018-06-30T04:11:43.435Z,99.90
2018-06-30T04:14:12.433Z,99.90
2018-06-30T04:16:41.474Z,99.90
2018-06-30T04:19:13.415Z,99.90
2018-06-30T04:21:43.929Z,99.90
2018-06-30T04:24:13.017Z,99.90
2018-06-30T04:26:42.960Z,99.90
2018-06-30T04:29:12.683Z,99.90
2018-06-30T04:31:41.676Z,99.90
2018-06-30T04:34:10.698Z,99.90
2018-06-30T04:36:39.778Z,99.90
2018-06-30T04:39:09.858Z,99.90
2018-06-30T04:41:38.858Z,99.90
2018-06-30T04:44:07.886Z,99.90
2018-06-30T04:46:36.884Z,99.90
2018-06-30T04:49:06.065Z,99.90
2018-06-30T04:51:35.030Z,99.90
2018-06-30T04:54:04.213Z,99.90
2018-06-30T04:56:33.359Z,99.90
2018-06-30T04:59:02.326Z,99.90
2018-06-30T05:01:31.257Z,99.90
2018-06-30T05:04:00.222Z,99.90
2018-06-30T05:06:29.218Z,99.90
2018-06-30T05:08:58.189Z,99.60
2018-06-30T05:11:27.193Z,98.70
2018-06-30T05:13:56.155Z,98.30
2018-06-30T05:16:25.073Z,97.20
2018-06-30T05:21:22.905Z,97.00
2018-06-30T05:23:52.023Z,96.40
2018-06-30T05:26:21.152Z,95.50
2018-06-30T05:28:50.113Z,95.10
2018-06-30T05:31:24.787Z,94.80
2018-06-30T05:33:53.742Z,94.10
2018-06-30T05:36:22.686Z,93.90
2018-06-30T05:38:51.995Z,93.50
2018-06-30T05:41:20.939Z,93.90
2018-06-30T05:43:49.886Z,92.90
2018-06-30T05:46:18.881Z,93.10
2018-06-30T05:48:47.901Z,92.70
2018-06-30T05:51:16.887Z,92.60
2018-06-30T05:53:45.883Z,92.20
2018-06-30T05:56:15.788Z,92.30
2018-06-30T05:58:44.857Z,92.20
2018-06-30T06:01:13.849Z,91.90
2018-06-30T06:03:42.897Z,91.20
2018-06-30T06:06:11.922Z,90.90
2018-06-30T06:08:41.071Z,91.50
2018-06-30T06:11:10.105Z,90.50
2018-06-30T06:13:39.133Z,90.50
2018-06-30T06:16:08.065Z,90.60
2018-06-30T06:18:37.018Z,89.70
2018-06-30T06:21:06.092Z,89.50
2018-06-30T06:23:34.994Z,89.00
2018-06-30T06:28:32.554Z,89.10
2018-06-30T06:31:01.512Z,89.70
2018-06-30T06:33:30.501Z,88.40
2018-06-30T06:35:59.504Z,87.30
2018-06-30T06:38:28.543Z,85.10
2018-06-30T06:40:57.523Z,84.20
2018-06-30T06:43:26.548Z,84.70
2018-06-30T06:45:56.255Z,83.30
2018-06-30T06:48:25.277Z,83.00
2018-06-30T06:50:54.474Z,83.90
2018-06-30T06:53:23.431Z,80.90
2018-06-30T06:55:52.422Z,80.60
2018-06-30T06:58:21.682Z,78.70
2018-06-30T07:00:50.688Z,78.20
2018-06-30T07:03:19.641Z,79.90
2018-06-30T07:05:48.655Z,79.30
2018-06-30T07:08:17.646Z,76.60
2018-06-30T07:10:46.622Z,76.80
2018-06-30T07:13:15.607Z,75.90
2018-06-30T07:15:44.577Z,76.90
2018-06-30T07:18:13.548Z,74.90
2018-06-30T07:20:43.055Z,75.20
2018-06-30T07:25:40.701Z,74.00
2018-06-30T07:28:09.692Z,72.10
2018-06-30T07:30:38.781Z,73.10
2018-06-30T07:33:08.085Z,71.00
2018-06-30T07:35:37.021Z,72.60
2018-06-30T07:38:06.265Z,70.00
2018-06-30T07:40:35.196Z,70.80
2018-06-30T07:43:04.535Z,69.70
2018-06-30T07:45:33.658Z,69.20
2018-06-30T07:48:02.631Z,69.90
2018-06-30T07:50:31.608Z,69.60
2018-06-30T07:53:00.579Z,70.50
2018-06-30T07:55:29.625Z,69.40
2018-06-30T07:57:58.587Z,68.10
2018-06-30T08:00:27.776Z,68.30
2018-06-30T08:02:56.749Z,68.20
2018-06-30T08:05:25.705Z,68.30
2018-06-30T08:07:54.736Z,69.00
2018-06-30T08:10:23.672Z,67.90
2018-06-30T08:12:52.731Z,65.00
2018-06-30T08:15:21.724Z,63.40
2018-06-30T08:17:50.701Z,64.70
2018-06-30T08:20:19.713Z,66.40
2018-06-30T08:22:48.678Z,63.20
2018-06-30T08:25:17.783Z,62.90
2018-06-30T08:27:46.853Z,64.20
2018-06-30T08:30:15.814Z,63.80
2018-06-30T08:32:44.805Z,65.30
2018-06-30T08:35:13.719Z,62.40
2018-06-30T08:37:42.750Z,61.10
2018-06-30T08:40:11.691Z,61.60
2018-06-30T08:42:40.965Z,62.50
2018-06-30T08:45:09.908Z,62.60
2018-06-30T08:47:39.047Z,61.30
2018-06-30T08:50:08.002Z,61.00
2018-06-30T08:52:37.090Z,62.30
2018-06-30T08:55:06.117Z,59.70
2018-06-30T08:57:35.122Z,59.80
2018-06-30T09:00:04.989Z,58.60
2018-06-30T09:02:34.212Z,58.90
2018-06-30T09:05:03.192Z,59.10
2018-06-30T09:07:32.126Z,58.60
2018-06-30T09:10:01.469Z,58.60
2018-06-30T09:12:30.427Z,59.50
2018-06-30T09:14:59.447Z,59.00
2018-06-30T09:17:28.393Z,58.00
2018-06-30T09:19:57.645Z,57.40
2018-06-30T09:22:26.625Z,57.40
2018-06-30T09:24:55.598Z,57.40
2018-06-30T09:29:53.341Z,56.40
2018-06-30T09:32:22.284Z,56.30
2018-06-30T09:34:51.247Z,54.50
2018-06-30T09:37:20.226Z,55.30
2018-06-30T09:39:49.209Z,54.70
2018-06-30T09:42:18.222Z,54.10
2018-06-30T09:44:47.280Z,55.00
2018-06-30T09:47:16.297Z,54.20
2018-06-30T09:49:45.270Z,52.80
2018-06-30T09:52:14.231Z,50.30
2018-06-30T09:54:43.175Z,52.50
2018-06-30T09:57:12.146Z,50.60
2018-06-30T09:59:41.108Z,47.30
2018-06-30T10:02:10.102Z,47.70
2018-06-30T10:04:39.957Z,48.10
2018-06-30T10:07:08.977Z,48.90
2018-06-30T10:09:38.187Z,48.50
2018-06-30T10:12:07.178Z,49.80
2018-06-30T10:14:36.141Z,50.20
2018-06-30T10:17:05.508Z,49.00
2018-06-30T10:19:34.512Z,48.10
2018-06-30T10:22:03.499Z,46.90
2018-06-30T10:27:02.085Z,45.70
2018-06-30T10:29:31.170Z,45.10
2018-06-30T10:32:00.981Z,45.60
2018-06-30T10:34:29.977Z,44.80
2018-06-30T10:36:59.231Z,46.50
2018-06-30T10:39:28.344Z,45.80
2018-06-30T10:41:57.284Z,44.60
2018-06-30T10:46:54.946Z,43.50
2018-06-30T10:49:23.907Z,43.50
2018-06-30T10:51:53.069Z,42.70
2018-06-30T10:54:22.114Z,40.60
2018-06-30T10:56:51.091Z,39.40
2018-06-30T10:59:20.222Z,40.10
2018-06-30T11:04:18.174Z,40.40
2018-06-30T11:06:47.063Z,39.10
2018-06-30T11:09:16.394Z,39.80
2018-06-30T11:11:45.577Z,36.00
2018-06-30T11:16:43.129Z,36.50
2018-06-30T11:19:12.209Z,35.80
2018-06-30T11:21:41.148Z,36.80
2018-06-30T11:24:10.164Z,36.20
2018-06-30T11:26:39.118Z,35.80
2018-06-30T11:31:36.707Z,32.80
2018-06-30T11:34:05.837Z,31.10
2018-06-30T11:36:34.821Z,31.30
2018-06-30T11:41:33.025Z,31.00
2018-06-30T11:44:01.997Z,31.20
2018-06-30T11:46:32.059Z,30.40
2018-06-30T11:49:01.001Z,29.00
2018-06-30T11:51:31.361Z,30.40
2018-06-30T11:54:00.979Z,30.00
2018-06-30T11:56:30.725Z,29.60
2018-06-30T11:59:00.679Z,27.10
2018-06-30T12:01:29.942Z,27.20
2018-06-30T12:03:59.042Z,28.30
2018-06-30T12:06:27.966Z,29.10
2018-06-30T12:08:57.015Z,27.80
2018-06-30T12:11:26.564Z,28.90
2018-06-30T12:13:55.633Z,28.40
2018-06-30T12:16:24.799Z,28.80
2018-06-30T12:18:54.070Z,28.50
2018-06-30T12:21:23.365Z,28.60
2018-06-30T12:23:52.629Z,28.30
2018-06-30T12:26:21.862Z,27.70
2018-06-30T12:28:51.093Z,28.20
2018-06-30T12:31:20.081Z,27.80
2018-06-30T12:33:49.069Z,27.30
2018-06-30T12:36:18.334Z,28.30
2018-06-30T12:38:47.578Z,27.80
2018-06-30T12:41:16.691Z,28.50
2018-06-30T12:43:45.626Z,28.80
2018-06-30T12:48:43.474Z,27.80
2018-06-30T12:51:12.640Z,27.10
2018-06-30T12:53:41.583Z,26.50
2018-06-30T12:56:10.526Z,26.80
2018-06-30T12:58:39.492Z,26.80
2018-06-30T13:01:08.472Z,26.30
2018-06-30T13:03:37.423Z,26.10
2018-06-30T13:06:06.447Z,26.30
2018-06-30T13:11:04.894Z,26.40
2018-06-30T13:13:33.893Z,26.40
2018-06-30T13:16:02.954Z,26.10
2018-06-30T13:18:31.916Z,25.80
2018-06-30T13:23:29.616Z,26.30
2018-06-30T13:25:58.707Z,26.60
2018-06-30T13:28:27.649Z,26.40
2018-06-30T13:30:56.645Z,26.30
2018-06-30T13:33:25.730Z,25.70
2018-06-30T13:35:54.650Z,26.30
2018-06-30T13:40:52.371Z,24.00
2018-06-30T13:43:21.410Z,24.30
2018-06-30T13:48:18.982Z,24.30
2018-06-30T13:50:47.954Z,23.60
2018-06-30T13:53:16.958Z,24.30
2018-06-30T13:55:45.913Z,24.00
2018-06-30T13:58:14.956Z,23.30
2018-06-30T14:00:43.909Z,23.50
2018-06-30T14:03:12.882Z,23.60
2018-06-30T14:05:41.884Z,23.40
2018-06-30T14:08:10.841Z,23.80
2018-06-30T14:10:39.809Z,24.00
2018-06-30T14:13:08.804Z,23.40
2018-06-30T14:15:37.857Z,24.00
2018-06-30T14:18:07.054Z,24.30
2018-06-30T14:20:36.042Z,23.60
2018-06-30T14:23:05.103Z,23.90
2018-06-30T14:25:34.078Z,23.80
2018-06-30T14:28:03.013Z,23.50
2018-06-30T14:30:32.037Z,23.90
2018-06-30T14:33:00.998Z,24.20
2018-06-30T14:35:29.978Z,24.00
2018-06-30T14:37:58.915Z,24.70
2018-06-30T14:40:27.874Z,24.20
2018-06-30T14:42:56.862Z,23.70
2018-06-30T14:45:25.782Z,23.40
2018-06-30T14:47:54.748Z,23.30
2018-06-30T14:50:23.674Z,23.70
2018-06-30T14:52:52.645Z,22.80
2018-06-30T14:55:21.607Z,22.50
2018-06-30T14:57:50.550Z,23.60
2018-06-30T15:00:19.481Z,23.40
2018-06-30T15:02:48.466Z,24.10
2018-06-30T15:05:17.497Z,23.90
2018-06-30T15:10:15.086Z,22.40
2018-06-30T15:12:44.443Z,22.20
2018-06-30T15:15:13.441Z,23.00
2018-06-30T15:17:42.393Z,23.00
2018-06-30T15:20:11.413Z,22.80
2018-06-30T15:22:40.391Z,21.50
2018-06-30T15:25:09.334Z,22.40
2018-06-30T15:27:38.294Z,22.60
2018-06-30T15:30:07.285Z,22.70
2018-06-30T15:32:36.257Z,22.60
2018-06-30T15:35:05.400Z,22.20
2018-06-30T15:40:03.062Z,22.50
2018-06-30T15:42:32.251Z,22.60
2018-06-30T15:45:01.239Z,22.70
2018-06-30T15:47:30.240Z,22.50
2018-06-30T15:49:59.192Z,22.60
2018-06-30T15:52:28.194Z,23.10
2018-06-30T15:54:57.249Z,22.70
2018-06-30T15:57:26.202Z,22.60
2018-06-30T15:59:55.174Z,21.90
2018-06-30T16:02:24.123Z,22.80
2018-06-30T16:04:53.121Z,22.60
2018-06-30T16:07:22.089Z,22.20
2018-06-30T16:09:51.056Z,22.40
2018-06-30T16:12:20.013Z,22.80
2018-06-30T16:14:49.071Z,23.00
2018-06-30T16:17:18.091Z,23.30
2018-06-30T16:19:47.068Z,23.10
2018-06-30T16:22:16.218Z,23.90
2018-06-30T16:24:45.161Z,23.50
2018-06-30T16:27:14.170Z,23.60
2018-06-30T16:29:43.217Z,23.60
2018-06-30T16:32:12.166Z,23.60
2018-06-30T16:34:41.163Z,24.00
2018-06-30T16:37:10.156Z,23.90
2018-06-30T16:39:39.162Z,23.70
2018-06-30T16:42:08.157Z,24.00
2018-06-30T16:44:37.168Z,23.70
2018-06-30T16:47:06.209Z,24.30
2018-06-30T16:49:35.185Z,24.00
2018-06-30T16:52:04.187Z,24.10
2018-06-30T16:54:33.244Z,24.40
2018-06-30T16:57:02.486Z,24.70
2018-06-30T16:59:31.672Z,24.40
2018-06-30T17:02:00.885Z,24.60
2018-06-30T17:04:29.854Z,24.80
2018-06-30T17:06:59.052Z,24.30
2018-06-30T17:09:28.399Z,25.00
2018-06-30T17:11:57.484Z,24.10
2018-06-30T17:14:26.710Z,24.00
2018-06-30T17:16:56.099Z,23.90
2018-06-30T17:19:25.158Z,23.40
2018-06-30T17:21:54.329Z,23.50
2018-06-30T17:24:23.393Z,23.50
2018-06-30T17:26:52.394Z,23.80
2018-06-30T17:29:21.433Z,24.20
2018-06-30T17:31:50.433Z,24.20
2018-06-30T17:34:19.443Z,24.30
2018-06-30T17:46:43.042Z,24.80
2018-06-30T17:49:12.032Z,25.30
2018-06-30T17:51:41.079Z,25.40
2018-06-30T17:54:10.096Z,25.60
2018-06-30T17:56:39.141Z,25.70
2018-06-30T17:59:08.402Z,26.10
2018-06-30T18:01:37.751Z,26.10
2018-06-30T18:04:06.733Z,26.40
2018-06-30T18:06:35.696Z,27.20
2018-06-30T18:09:07.601Z,26.90
2018-06-30T18:11:36.557Z,27.40
2018-06-30T18:14:05.700Z,27.20
2018-06-30T18:16:34.622Z,27.50
2018-06-30T18:19:03.706Z,27.60
2018-06-30T18:21:32.687Z,28.10
2018-06-30T18:24:01.658Z,28.20
2018-06-30T18:26:30.845Z,28.20
2018-06-30T18:28:59.827Z,28.20
2018-06-30T18:31:29.538Z,28.10
2018-06-30T18:33:58.473Z,28.60
2018-06-30T18:36:27.457Z,29.00
2018-06-30T18:38:56.430Z,29.50
2018-06-30T18:41:25.413Z,29.00
2018-06-30T18:43:54.418Z,29.20
2018-06-30T18:46:23.430Z,29.60
2018-06-30T18:48:52.417Z,30.50
2018-06-30T18:51:21.425Z,31.20
2018-06-30T18:53:50.380Z,31.70
2018-06-30T18:56:19.539Z,32.20
2018-06-30T18:58:48.509Z,32.40
2018-06-30T19:01:17.498Z,32.60
2018-06-30T19:03:46.466Z,33.10
2018-06-30T19:06:15.412Z,33.30
2018-06-30T19:08:45.430Z,33.40
2018-06-30T19:11:14.412Z,33.50
2018-06-30T19:13:43.363Z,33.70
2018-06-30T19:16:12.417Z,34.20
2018-06-30T19:18:41.382Z,33.80
2018-06-30T19:21:10.583Z,34.00
2018-06-30T19:26:09.044Z,34.30
2018-06-30T19:28:38.197Z,34.30
2018-06-30T19:31:07.145Z,34.40
2018-06-30T19:36:05.041Z,34.40
2018-06-30T19:38:33.989Z,34.70
2018-06-30T19:41:03.030Z,34.80
2018-06-30T19:43:31.988Z,35.10
2018-06-30T19:46:00.970Z,35.00
2018-06-30T19:48:30.180Z,35.20
2018-06-30T19:50:59.744Z,35.30
2018-06-30T19:53:28.702Z,35.30
2018-06-30T19:58:26.681Z,35.30
2018-06-30T20:03:24.346Z,35.50
2018-06-30T20:05:53.296Z,35.90
2018-06-30T20:08:22.224Z,35.80
2018-06-30T20:10:51.248Z,35.90
2018-06-30T20:13:20.170Z,36.20
2018-06-30T20:15:49.165Z,36.40
2018-06-30T20:18:18.144Z,36.80
2018-06-30T20:20:47.174Z,36.70
2018-06-30T20:23:16.096Z,36.40
2018-06-30T20:28:13.634Z,36.90
2018-06-30T20:30:42.636Z,36.90
2018-06-30T20:33:11.647Z,37.10
2018-06-30T20:35:40.598Z,37.10
2018-06-30T20:38:09.610Z,37.40
2018-06-30T20:40:38.577Z,37.40
2018-06-30T20:43:07.554Z,38.00
2018-06-30T20:45:36.520Z,37.60
2018-06-30T20:48:05.520Z,37.70
2018-06-30T20:50:34.510Z,37.70
2018-06-30T20:53:03.479Z,37.80
2018-06-30T20:55:32.674Z,37.90
2018-06-30T21:00:30.271Z,38.10
2018-06-30T21:02:59.234Z,37.90
2018-06-30T21:05:28.192Z,38.20
2018-06-30T21:07:57.325Z,38.40
2018-06-30T21:10:26.349Z,38.40
2018-06-30T21:12:55.311Z,38.60
2018-06-30T21:15:24.285Z,38.80
2018-06-30T21:20:22.261Z,39.10
2018-06-30T21:22:51.345Z,39.10
2018-06-30T21:25:20.616Z,39.20
2018-06-30T21:27:49.576Z,39.20
2018-06-30T21:30:18.661Z,39.30
2018-06-30T21:32:47.726Z,39.40
2018-06-30T21:35:16.725Z,39.50
2018-06-30T21:40:14.553Z,40.30
2018-06-30T21:42:43.777Z,40.10
2018-06-30T21:45:12.746Z,40.30
2018-06-30T21:47:41.769Z,40.50
2018-06-30T21:50:10.723Z,40.70
2018-06-30T21:52:39.694Z,40.80
2018-06-30T21:55:08.753Z,41.00
2018-06-30T21:57:37.694Z,41.00
2018-06-30T22:00:10.073Z,41.10
2018-06-30T22:02:39.109Z,41.20
2018-06-30T22:05:08.269Z,41.30
2018-06-30T22:07:37.295Z,41.00
2018-06-30T22:10:07.158Z,41.70
2018-06-30T22:12:36.271Z,41.70
2018-06-30T22:15:05.657Z,41.70
2018-06-30T22:17:34.682Z,41.90
2018-06-30T22:20:03.674Z,42.20
2018-06-30T22:22:32.742Z,42.60
2018-06-30T22:25:01.769Z,42.70
2018-06-30T22:27:30.694Z,43.00
2018-06-30T22:29:59.741Z,43.10
2018-06-30T22:32:28.680Z,43.40
2018-06-30T22:34:57.622Z,43.40
2018-06-30T22:37:26.566Z,43.70
2018-06-30T22:40:07.219Z,43.70
2018-06-30T22:42:36.175Z,43.70
2018-06-30T22:45:05.803Z,43.90
2018-06-30T22:47:34.778Z,44.00
2018-06-30T22:50:03.743Z,44.30
2018-06-30T22:52:32.761Z,44.50
2018-06-30T22:55:01.959Z,44.50
2018-06-30T22:57:30.896Z,44.70
2018-06-30T22:59:59.875Z,44.90
2018-06-30T23:02:28.826Z,45.00
2018-06-30T23:04:57.777Z,44.90
2018-06-30T23:07:26.770Z,45.10
2018-06-30T23:09:55.806Z,45.20
2018-06-30T23:12:24.769Z,45.50
2018-06-30T23:14:53.694Z,46.00
2018-06-30T23:17:22.638Z,45.90
2018-06-30T23:19:51.991Z,46.00
2018-06-30T23:22:59.490Z,45.90
2018-06-30T23:25:30.704Z,45.90
2018-06-30T23:28:00.092Z,46.30
2018-06-30T23:30:29.676Z,46.60
2018-06-30T23:32:58.681Z,46.80
2018-06-30T23:35:28.776Z,46.90
2018-06-30T23:37:58.724Z,47.20
2018-06-30T23:40:27.721Z,47.30
2018-06-30T23:42:56.637Z,47.40
2018-06-30T23:45:25.585Z,47.50
2018-06-30T23:47:54.755Z,47.60
2018-06-30T23:50:23.737Z,47.80
2018-06-30T23:52:52.797Z,48.10
2018-06-30T23:55:21.748Z,48.30
2018-06-30T23:57:50.722Z,48.40
